sensor_id;sensor_type;location;lat;lon;timestamp;temperature;humidity
22765;DHT22;11549;50.852;3.816;2023-08-21T00:01:37;20.60;99.90
22765;DHT22;11549;50.852;3.816;2023-08-21T00:04:06;20.60;99.90
22765;DHT22;11549;50.852;3.816;2023-08-21T00:06:36;20.60;99.90
22765;DHT22;11549;50.852;3.816;2023-08-21T00:09:04;20.50;99.90
22765;DHT22;11549;50.852;3.816;2023-08-21T00:11:33;20.50;99.90
22765;DHT22;11549;50.852;3.816;2023-08-21T00:14:01;20.50;99.90
22765;DHT22;11549;50.852;3.816;2023-08-21T00:16:30;20.40;99.90
22765;DHT22;11549;50.852;3.816;2023-08-21T00:18:58;20.40;99.90
22765;DHT22;11549;50.852;3.816;2023-08-21T00:21:26;20.40;99.90
22765;DHT22;11549;50.852;3.816;2023-08-21T00:23:56;20.40;99.90
22765;DHT22;11549;50.852;3.816;2023-08-21T00:26:24;20.30;99.90
22765;DHT22;11549;50.852;3.816;2023-08-21T00:28:52;20.30;99.90
22765;DHT22;11549;50.852;3.816;2023-08-21T00:31:21;20.20;99.90
22765;DHT22;11549;50.852;3.816;2023-08-21T00:33:49;20.20;99.90
22765;DHT22;11549;50.852;3.816;2023-08-21T00:36:17;20.20;99.90
22765;DHT22;11549;50.852;3.816;2023-08-21T00:38:46;20.10;99.90
22765;DHT22;11549;50.852;3.816;2023-08-21T00:41:17;20.10;99.90
22765;DHT22;11549;50.852;3.816;2023-08-21T00:43:45;20.00;99.90
22765;DHT22;11549;50.852;3.816;2023-08-21T00:46:13;20.00;99.90
22765;DHT22;11549;50.852;3.816;2023-08-21T00:48:43;20.00;99.90
22765;DHT22;11549;50.852;3.816;2023-08-21T00:51:12;20.00;99.90
22765;DHT22;11549;50.852;3.816;2023-08-21T00:53:43;19.90;99.90
22765;DHT22;11549;50.852;3.816;2023-08-21T00:56:13;19.90;99.90
22765;DHT22;11549;50.852;3.816;2023-08-21T00:58:43;19.90;99.90
22765;DHT22;11549;50.852;3.816;2023-08-21T01:01:12;19.90;99.90
22765;DHT22;11549;50.852;3.816;2023-08-21T01:03:42;19.80;99.90
22765;DHT22;11549;50.852;3.816;2023-08-21T01:06:10;19.80;99.90
22765;DHT22;11549;50.852;3.816;2023-08-21T01:08:45;19.80;99.90
22765;DHT22;11549;50.852;3.816;2023-08-21T01:11:20;19.70;99.90
22765;DHT22;11549;50.852;3.816;2023-08-21T01:13:58;19.70;99.90
22765;DHT22;11549;50.852;3.816;2023-08-21T01:16:31;19.60;99.90
22765;DHT22;11549;50.852;3.816;2023-08-21T01:19:01;19.70;99.90
22765;DHT22;11549;50.852;3.816;2023-08-21T01:21:31;19.70;99.90
22765;DHT22;11549;50.852;3.816;2023-08-21T01:24:01;19.60;99.90
22765;DHT22;11549;50.852;3.816;2023-08-21T01:26:29;19.60;99.90
22765;DHT22;11549;50.852;3.816;2023-08-21T01:28:58;19.60;99.90
22765;DHT22;11549;50.852;3.816;2023-08-21T01:31:30;19.60;99.90
22765;DHT22;11549;50.852;3.816;2023-08-21T01:34:02;19.60;99.90
22765;DHT22;11549;50.852;3.816;2023-08-21T01:36:32;19.60;99.90
22765;DHT22;11549;50.852;3.816;2023-08-21T01:39:03;19.60;99.90
22765;DHT22;11549;50.852;3.816;2023-08-21T01:41:32;19.60;99.90
22765;DHT22;11549;50.852;3.816;2023-08-21T01:44:00;19.50;99.90
22765;DHT22;11549;50.852;3.816;2023-08-21T01:46:28;19.50;99.90
22765;DHT22;11549;50.852;3.816;2023-08-21T01:48:57;19.40;99.90
22765;DHT22;11549;50.852;3.816;2023-08-21T01:51:25;19.40;99.90
22765;DHT22;11549;50.852;3.816;2023-08-21T01:53:53;19.30;99.90
22765;DHT22;11549;50.852;3.816;2023-08-21T01:56:23;19.40;99.90
22765;DHT22;11549;50.852;3.816;2023-08-21T01:58:51;19.40;99.90
22765;DHT22;11549;50.852;3.816;2023-08-21T02:01:19;19.40;99.90
22765;DHT22;11549;50.852;3.816;2023-08-21T02:03:48;19.40;99.90
22765;DHT22;11549;50.852;3.816;2023-08-21T02:06:16;19.40;99.90
22765;DHT22;11549;50.852;3.816;2023-08-21T02:08:44;19.40;99.90
22765;DHT22;11549;50.852;3.816;2023-08-21T02:11:13;19.40;99.90
22765;DHT22;11549;50.852;3.816;2023-08-21T02:13:43;19.40;99.90
22765;DHT22;11549;50.852;3.816;2023-08-21T02:16:11;19.50;99.90
22765;DHT22;11549;50.852;3.816;2023-08-21T02:18:39;19.50;99.90
22765;DHT22;11549;50.852;3.816;2023-08-21T02:21:08;19.50;99.90
22765;DHT22;11549;50.852;3.816;2023-08-21T02:23:36;19.60;99.90
22765;DHT22;11549;50.852;3.816;2023-08-21T02:26:04;19.60;99.90
22765;DHT22;11549;50.852;3.816;2023-08-21T02:28:33;19.50;99.90
22765;DHT22;11549;50.852;3.816;2023-08-21T02:31:02;19.50;99.90
22765;DHT22;11549;50.852;3.816;2023-08-21T02:33:32;19.60;99.90
22765;DHT22;11549;50.852;3.816;2023-08-21T02:36:00;19.50;99.90
22765;DHT22;11549;50.852;3.816;2023-08-21T02:38:35;19.50;99.90
22765;DHT22;11549;50.852;3.816;2023-08-21T02:41:04;19.60;99.90
22765;DHT22;11549;50.852;3.816;2023-08-21T02:43:32;19.50;99.90
22765;DHT22;11549;50.852;3.816;2023-08-21T02:46:01;19.50;99.90
22765;DHT22;11549;50.852;3.816;2023-08-21T02:48:30;19.40;99.90
22765;DHT22;11549;50.852;3.816;2023-08-21T02:50:58;19.40;99.90
22765;DHT22;11549;50.852;3.816;2023-08-21T02:53:30;19.30;99.90
22765;DHT22;11549;50.852;3.816;2023-08-21T02:55:58;19.20;99.90
22765;DHT22;11549;50.852;3.816;2023-08-21T02:58:26;19.20;99.90
22765;DHT22;11549;50.852;3.816;2023-08-21T03:00:55;19.20;99.90
22765;DHT22;11549;50.852;3.816;2023-08-21T03:03:25;19.20;99.90
22765;DHT22;11549;50.852;3.816;2023-08-21T03:05:53;19.20;99.90
22765;DHT22;11549;50.852;3.816;2023-08-21T03:08:21;19.20;99.90
22765;DHT22;11549;50.852;3.816;2023-08-21T03:10:50;19.10;99.90
22765;DHT22;11549;50.852;3.816;2023-08-21T03:13:18;19.10;99.90
22765;DHT22;11549;50.852;3.816;2023-08-21T03:15:46;19.10;99.90
22765;DHT22;11549;50.852;3.816;2023-08-21T03:18:15;19.10;99.90
22765;DHT22;11549;50.852;3.816;2023-08-21T03:20:46;19.10;99.90
22765;DHT22;11549;50.852;3.816;2023-08-21T03:23:14;19.10;99.90
22765;DHT22;11549;50.852;3.816;2023-08-21T03:25:42;19.10;99.90
22765;DHT22;11549;50.852;3.816;2023-08-21T03:28:11;19.00;99.90
22765;DHT22;11549;50.852;3.816;2023-08-21T03:30:39;19.00;99.90
22765;DHT22;11549;50.852;3.816;2023-08-21T03:33:08;19.00;99.90
22765;DHT22;11549;50.852;3.816;2023-08-21T03:35:36;18.90;99.90
22765;DHT22;11549;50.852;3.816;2023-08-21T03:38:06;18.90;99.90
22765;DHT22;11549;50.852;3.816;2023-08-21T03:40:35;18.90;99.90
22765;DHT22;11549;50.852;3.816;2023-08-21T03:43:03;18.90;99.90
22765;DHT22;11549;50.852;3.816;2023-08-21T03:45:31;18.80;99.90
22765;DHT22;11549;50.852;3.816;2023-08-21T03:48:00;18.80;99.90
22765;DHT22;11549;50.852;3.816;2023-08-21T03:50:28;18.80;99.90
22765;DHT22;11549;50.852;3.816;2023-08-21T03:52:56;18.70;99.90
22765;DHT22;11549;50.852;3.816;2023-08-21T03:55:26;18.70;99.90
22765;DHT22;11549;50.852;3.816;2023-08-21T03:57:54;18.70;99.90
22765;DHT22;11549;50.852;3.816;2023-08-21T04:00:22;18.70;99.90
22765;DHT22;11549;50.852;3.816;2023-08-21T04:02:51;18.70;99.90
22765;DHT22;11549;50.852;3.816;2023-08-21T04:05:19;18.70;99.90
22765;DHT22;11549;50.852;3.816;2023-08-21T04:07:48;18.60;99.90
22765;DHT22;11549;50.852;3.816;2023-08-21T04:10:16;18.50;99.90
22765;DHT22;11549;50.852;3.816;2023-08-21T04:12:46;18.50;99.90
22765;DHT22;11549;50.852;3.816;2023-08-21T04:15:14;18.50;99.90
22765;DHT22;11549;50.852;3.816;2023-08-21T04:17:42;18.40;99.90
22765;DHT22;11549;50.852;3.816;2023-08-21T04:20:11;18.40;99.90
22765;DHT22;11549;50.852;3.816;2023-08-21T04:22:40;18.40;99.90
22765;DHT22;11549;50.852;3.816;2023-08-21T04:25:08;18.40;99.90
22765;DHT22;11549;50.852;3.816;2023-08-21T04:27:38;18.40;99.90
22765;DHT22;11549;50.852;3.816;2023-08-21T04:30:08;18.30;99.90
22765;DHT22;11549;50.852;3.816;2023-08-21T04:32:37;18.30;99.90
22765;DHT22;11549;50.852;3.816;2023-08-21T04:35:07;18.30;99.90
22765;DHT22;11549;50.852;3.816;2023-08-21T04:37:38;18.30;99.90
22765;DHT22;11549;50.852;3.816;2023-08-21T04:40:11;18.30;99.90
22765;DHT22;11549;50.852;3.816;2023-08-21T04:42:39;18.20;99.90
22765;DHT22;11549;50.852;3.816;2023-08-21T04:45:09;18.20;99.90
22765;DHT22;11549;50.852;3.816;2023-08-21T04:47:38;18.20;99.90
22765;DHT22;11549;50.852;3.816;2023-08-21T04:50:07;18.20;99.90
22765;DHT22;11549;50.852;3.816;2023-08-21T04:52:35;18.20;99.90
22765;DHT22;11549;50.852;3.816;2023-08-21T04:55:05;18.20;99.90
22765;DHT22;11549;50.852;3.816;2023-08-21T04:57:34;18.10;99.90
22765;DHT22;11549;50.852;3.816;2023-08-21T05:00:03;18.20;99.90
22765;DHT22;11549;50.852;3.816;2023-08-21T05:02:33;18.20;99.90
22765;DHT22;11549;50.852;3.816;2023-08-21T05:05:03;18.20;99.90
22765;DHT22;11549;50.852;3.816;2023-08-21T05:07:32;18.20;99.90
22765;DHT22;11549;50.852;3.816;2023-08-21T05:10:00;18.30;99.90
22765;DHT22;11549;50.852;3.816;2023-08-21T05:12:28;18.30;99.90
22765;DHT22;11549;50.852;3.816;2023-08-21T05:14:57;18.40;99.90
22765;DHT22;11549;50.852;3.816;2023-08-21T05:17:25;18.40;99.90
22765;DHT22;11549;50.852;3.816;2023-08-21T05:19:55;18.50;99.90
22765;DHT22;11549;50.852;3.816;2023-08-21T05:22:23;18.50;99.90
22765;DHT22;11549;50.852;3.816;2023-08-21T05:24:52;18.40;99.90
22765;DHT22;11549;50.852;3.816;2023-08-21T05:27:20;18.40;99.90
22765;DHT22;11549;50.852;3.816;2023-08-21T05:29:48;18.40;99.90
22765;DHT22;11549;50.852;3.816;2023-08-21T05:32:18;18.40;99.90
22765;DHT22;11549;50.852;3.816;2023-08-21T05:34:46;18.40;99.90
22765;DHT22;11549;50.852;3.816;2023-08-21T05:37:16;18.40;99.90
22765;DHT22;11549;50.852;3.816;2023-08-21T05:39:44;18.40;99.90
22765;DHT22;11549;50.852;3.816;2023-08-21T05:42:13;18.60;99.90
22765;DHT22;11549;50.852;3.816;2023-08-21T05:44:41;18.70;99.90
22765;DHT22;11549;50.852;3.816;2023-08-21T05:47:09;18.70;99.90
22765;DHT22;11549;50.852;3.816;2023-08-21T05:49:38;18.80;99.90
22765;DHT22;11549;50.852;3.816;2023-08-21T05:52:06;18.90;99.90
22765;DHT22;11549;50.852;3.816;2023-08-21T05:54:36;19.10;99.90
22765;DHT22;11549;50.852;3.816;2023-08-21T05:57:04;19.30;99.90
22765;DHT22;11549;50.852;3.816;2023-08-21T05:59:33;19.40;99.90
22765;DHT22;11549;50.852;3.816;2023-08-21T06:02:01;19.70;99.90
22765;DHT22;11549;50.852;3.816;2023-08-21T06:04:30;20.00;99.90
22765;DHT22;11549;50.852;3.816;2023-08-21T06:06:58;20.40;99.90
22765;DHT22;11549;50.852;3.816;2023-08-21T06:09:28;20.80;99.90
22765;DHT22;11549;50.852;3.816;2023-08-21T06:11:59;21.20;99.90
22765;DHT22;11549;50.852;3.816;2023-08-21T06:14:29;21.70;99.90
22765;DHT22;11549;50.852;3.816;2023-08-21T06:16:58;22.10;99.90
22765;DHT22;11549;50.852;3.816;2023-08-21T06:19:27;22.40;99.90
22765;DHT22;11549;50.852;3.816;2023-08-21T06:21:56;22.60;99.90
22765;DHT22;11549;50.852;3.816;2023-08-21T06:24:24;22.90;99.90
22765;DHT22;11549;50.852;3.816;2023-08-21T06:26:52;23.10;99.90
22765;DHT22;11549;50.852;3.816;2023-08-21T06:29:22;23.40;99.90
22765;DHT22;11549;50.852;3.816;2023-08-21T06:31:51;23.60;99.90
22765;DHT22;11549;50.852;3.816;2023-08-21T06:34:19;23.80;99.90
22765;DHT22;11549;50.852;3.816;2023-08-21T06:36:47;23.90;99.90
22765;DHT22;11549;50.852;3.816;2023-08-21T06:39:15;24.10;99.90
22765;DHT22;11549;50.852;3.816;2023-08-21T06:41:44;24.20;99.90
22765;DHT22;11549;50.852;3.816;2023-08-21T06:44:13;24.40;99.90
22765;DHT22;11549;50.852;3.816;2023-08-21T06:46:42;24.60;99.90
22765;DHT22;11549;50.852;3.816;2023-08-21T06:49:11;25.00;99.90
22765;DHT22;11549;50.852;3.816;2023-08-21T06:51:40;25.10;99.90
22765;DHT22;11549;50.852;3.816;2023-08-21T06:54:08;25.20;99.90
22765;DHT22;11549;50.852;3.816;2023-08-21T06:56:36;25.10;99.90
22765;DHT22;11549;50.852;3.816;2023-08-21T06:59:05;25.00;99.90
22765;DHT22;11549;50.852;3.816;2023-08-21T07:01:33;25.00;99.90
22765;DHT22;11549;50.852;3.816;2023-08-21T07:04:02;25.00;99.90
22765;DHT22;11549;50.852;3.816;2023-08-21T07:06:31;25.00;99.90
22765;DHT22;11549;50.852;3.816;2023-08-21T07:08:59;24.90;99.90
22765;DHT22;11549;50.852;3.816;2023-08-21T07:11:28;24.80;99.90
22765;DHT22;11549;50.852;3.816;2023-08-21T07:13:56;24.60;99.90
22765;DHT22;11549;50.852;3.816;2023-08-21T07:16:24;24.60;99.90
22765;DHT22;11549;50.852;3.816;2023-08-21T07:18:53;24.70;99.90
22765;DHT22;11549;50.852;3.816;2023-08-21T07:21:23;24.10;99.90
22765;DHT22;11549;50.852;3.816;2023-08-21T07:24:00;23.80;99.90
22765;DHT22;11549;50.852;3.816;2023-08-21T07:26:29;23.70;99.90
22765;DHT22;11549;50.852;3.816;2023-08-21T07:28:58;23.60;99.90
22765;DHT22;11549;50.852;3.816;2023-08-21T07:31:26;23.60;99.90
22765;DHT22;11549;50.852;3.816;2023-08-21T07:33:55;23.40;99.90
22765;DHT22;11549;50.852;3.816;2023-08-21T07:36:25;23.40;99.90
22765;DHT22;11549;50.852;3.816;2023-08-21T07:38:53;23.30;99.90
22765;DHT22;11549;50.852;3.816;2023-08-21T07:41:21;23.20;99.90
22765;DHT22;11549;50.852;3.816;2023-08-21T07:43:53;23.10;99.90
22765;DHT22;11549;50.852;3.816;2023-08-21T07:46:21;23.10;99.90
22765;DHT22;11549;50.852;3.816;2023-08-21T07:48:52;23.20;99.90
22765;DHT22;11549;50.852;3.816;2023-08-21T07:51:20;23.20;99.90
22765;DHT22;11549;50.852;3.816;2023-08-21T07:53:50;23.20;99.90
22765;DHT22;11549;50.852;3.816;2023-08-21T07:56:18;23.40;99.90
22765;DHT22;11549;50.852;3.816;2023-08-21T07:58:47;23.40;99.90
22765;DHT22;11549;50.852;3.816;2023-08-21T08:01:15;23.80;99.90
22765;DHT22;11549;50.852;3.816;2023-08-21T08:03:44;24.50;99.90
22765;DHT22;11549;50.852;3.816;2023-08-21T08:06:12;25.10;99.90
22765;DHT22;11549;50.852;3.816;2023-08-21T08:08:41;25.50;99.90
22765;DHT22;11549;50.852;3.816;2023-08-21T08:11:11;25.80;99.90
22765;DHT22;11549;50.852;3.816;2023-08-21T08:13:39;25.90;99.90
22765;DHT22;11549;50.852;3.816;2023-08-21T08:16:07;26.10;99.90
22765;DHT22;11549;50.852;3.816;2023-08-21T08:18:36;26.40;99.90
22765;DHT22;11549;50.852;3.816;2023-08-21T08:21:04;26.70;99.90
22765;DHT22;11549;50.852;3.816;2023-08-21T08:23:32;26.80;99.90
22765;DHT22;11549;50.852;3.816;2023-08-21T08:26:01;27.00;99.90
22765;DHT22;11549;50.852;3.816;2023-08-21T08:28:31;26.80;99.90
22765;DHT22;11549;50.852;3.816;2023-08-21T08:30:59;27.20;99.90
22765;DHT22;11549;50.852;3.816;2023-08-21T08:33:27;27.60;99.90
22765;DHT22;11549;50.852;3.816;2023-08-21T08:35:56;27.70;99.90
22765;DHT22;11549;50.852;3.816;2023-08-21T08:38:28;28.10;99.90
22765;DHT22;11549;50.852;3.816;2023-08-21T08:40:56;28.40;99.90
22765;DHT22;11549;50.852;3.816;2023-08-21T08:43:27;28.80;99.90
22765;DHT22;11549;50.852;3.816;2023-08-21T08:45:58;29.00;99.90
22765;DHT22;11549;50.852;3.816;2023-08-21T08:48:28;29.00;99.90
22765;DHT22;11549;50.852;3.816;2023-08-21T08:50:57;29.00;99.90
22765;DHT22;11549;50.852;3.816;2023-08-21T08:53:26;29.00;99.90
22765;DHT22;11549;50.852;3.816;2023-08-21T08:55:55;28.80;99.90
22765;DHT22;11549;50.852;3.816;2023-08-21T08:58:24;29.10;99.90
22765;DHT22;11549;50.852;3.816;2023-08-21T09:00:52;29.20;99.90
22765;DHT22;11549;50.852;3.816;2023-08-21T09:03:22;29.80;99.90
22765;DHT22;11549;50.852;3.816;2023-08-21T09:05:51;29.80;99.90
22765;DHT22;11549;50.852;3.816;2023-08-21T09:08:19;30.10;99.90
22765;DHT22;11549;50.852;3.816;2023-08-21T09:10:48;30.10;99.90
22765;DHT22;11549;50.852;3.816;2023-08-21T09:13:18;30.30;99.90
22765;DHT22;11549;50.852;3.816;2023-08-21T09:15:48;30.70;99.90
22765;DHT22;11549;50.852;3.816;2023-08-21T09:18:16;31.10;99.90
22765;DHT22;11549;50.852;3.816;2023-08-21T09:20:46;31.30;99.90
22765;DHT22;11549;50.852;3.816;2023-08-21T09:23:16;31.00;99.90
22765;DHT22;11549;50.852;3.816;2023-08-21T09:25:46;30.70;99.90
22765;DHT22;11549;50.852;3.816;2023-08-21T09:28:19;31.00;99.90
22765;DHT22;11549;50.852;3.816;2023-08-21T09:30:50;31.30;99.90
22765;DHT22;11549;50.852;3.816;2023-08-21T09:33:19;31.20;99.90
22765;DHT22;11549;50.852;3.816;2023-08-21T09:35:52;31.40;99.90
22765;DHT22;11549;50.852;3.816;2023-08-21T09:38:20;31.50;99.90
22765;DHT22;11549;50.852;3.816;2023-08-21T09:40:54;31.60;99.90
22765;DHT22;11549;50.852;3.816;2023-08-21T09:43:24;31.60;99.90
22765;DHT22;11549;50.852;3.816;2023-08-21T09:45:54;31.40;99.90
22765;DHT22;11549;50.852;3.816;2023-08-21T09:48:25;31.30;99.90
22765;DHT22;11549;50.852;3.816;2023-08-21T09:50:56;31.40;99.90
22765;DHT22;11549;50.852;3.816;2023-08-21T09:53:24;31.50;99.90
22765;DHT22;11549;50.852;3.816;2023-08-21T09:55:54;31.70;99.90
22765;DHT22;11549;50.852;3.816;2023-08-21T09:58:22;31.70;99.90
22765;DHT22;11549;50.852;3.816;2023-08-21T10:00:56;32.30;99.90
22765;DHT22;11549;50.852;3.816;2023-08-21T10:03:25;32.30;99.90
22765;DHT22;11549;50.852;3.816;2023-08-21T10:05:58;32.50;99.90
22765;DHT22;11549;50.852;3.816;2023-08-21T10:08:27;32.40;99.90
22765;DHT22;11549;50.852;3.816;2023-08-21T10:10:57;32.50;99.90
22765;DHT22;11549;50.852;3.816;2023-08-21T10:13:31;32.80;98.90
22765;DHT22;11549;50.852;3.816;2023-08-21T10:16:00;32.70;99.90
22765;DHT22;11549;50.852;3.816;2023-08-21T10:18:33;32.70;98.80
22765;DHT22;11549;50.852;3.816;2023-08-21T10:21:15;32.70;99.30
22765;DHT22;11549;50.852;3.816;2023-08-21T10:23:47;32.90;99.30
22765;DHT22;11549;50.852;3.816;2023-08-21T10:26:19;33.20;97.20
22765;DHT22;11549;50.852;3.816;2023-08-21T10:28:51;33.00;96.80
22765;DHT22;11549;50.852;3.816;2023-08-21T10:31:30;33.10;95.40
22765;DHT22;11549;50.852;3.816;2023-08-21T10:34:00;33.10;92.50
22765;DHT22;11549;50.852;3.816;2023-08-21T10:36:41;32.90;95.60
22765;DHT22;11549;50.852;3.816;2023-08-21T10:39:28;33.00;95.20
22765;DHT22;11549;50.852;3.816;2023-08-21T10:42:01;33.30;91.60
22765;DHT22;11549;50.852;3.816;2023-08-21T10:44:46;33.50;92.70
22765;DHT22;11549;50.852;3.816;2023-08-21T10:47:19;33.40;92.00
22765;DHT22;11549;50.852;3.816;2023-08-21T10:49:49;33.40;89.80
22765;DHT22;11549;50.852;3.816;2023-08-21T10:52:23;33.20;91.30
22765;DHT22;11549;50.852;3.816;2023-08-21T10:54:53;33.40;90.90
22765;DHT22;11549;50.852;3.816;2023-08-21T10:57:22;33.70;90.20
22765;DHT22;11549;50.852;3.816;2023-08-21T10:59:52;34.10;85.00
22765;DHT22;11549;50.852;3.816;2023-08-21T11:02:21;34.00;85.10
22765;DHT22;11549;50.852;3.816;2023-08-21T11:04:50;34.00;84.70
22765;DHT22;11549;50.852;3.816;2023-08-21T11:07:20;33.60;87.50
22765;DHT22;11549;50.852;3.816;2023-08-21T11:09:49;33.10;88.30
22765;DHT22;11549;50.852;3.816;2023-08-21T11:12:18;33.10;90.90
22765;DHT22;11549;50.852;3.816;2023-08-21T11:14:47;33.10;89.20
22765;DHT22;11549;50.852;3.816;2023-08-21T11:17:18;33.20;86.40
22765;DHT22;11549;50.852;3.816;2023-08-21T11:19:46;33.40;84.30
22765;DHT22;11549;50.852;3.816;2023-08-21T11:22:16;33.40;85.60
22765;DHT22;11549;50.852;3.816;2023-08-21T11:24:48;33.60;87.00
22765;DHT22;11549;50.852;3.816;2023-08-21T11:27:18;33.60;85.40
22765;DHT22;11549;50.852;3.816;2023-08-21T11:29:51;33.80;87.00
22765;DHT22;11549;50.852;3.816;2023-08-21T11:32:21;33.90;86.70
22765;DHT22;11549;50.852;3.816;2023-08-21T11:34:51;34.40;81.10
22765;DHT22;11549;50.852;3.816;2023-08-21T11:37:21;34.60;77.80
22765;DHT22;11549;50.852;3.816;2023-08-21T11:39:53;34.70;80.80
22765;DHT22;11549;50.852;3.816;2023-08-21T11:42:28;34.30;78.80
22765;DHT22;11549;50.852;3.816;2023-08-21T11:44:58;34.00;78.10
22765;DHT22;11549;50.852;3.816;2023-08-21T11:47:31;33.40;81.30
22765;DHT22;11549;50.852;3.816;2023-08-21T11:50:02;33.60;85.10
22765;DHT22;11549;50.852;3.816;2023-08-21T11:52:33;33.70;81.80
22765;DHT22;11549;50.852;3.816;2023-08-21T11:55:09;33.80;80.80
22765;DHT22;11549;50.852;3.816;2023-08-21T11:57:46;33.70;84.50
22765;DHT22;11549;50.852;3.816;2023-08-21T12:00:15;33.30;82.10
22765;DHT22;11549;50.852;3.816;2023-08-21T12:02:54;33.70;78.20
22765;DHT22;11549;50.852;3.816;2023-08-21T12:05:23;33.70;77.20
22765;DHT22;11549;50.852;3.816;2023-08-21T12:07:52;33.90;76.80
22765;DHT22;11549;50.852;3.816;2023-08-21T12:10:26;33.80;73.30
22765;DHT22;11549;50.852;3.816;2023-08-21T12:12:55;33.80;73.80
22765;DHT22;11549;50.852;3.816;2023-08-21T12:15:23;33.70;78.30
22765;DHT22;11549;50.852;3.816;2023-08-21T12:17:51;33.70;79.70
22765;DHT22;11549;50.852;3.816;2023-08-21T12:20:20;33.50;81.90
22765;DHT22;11549;50.852;3.816;2023-08-21T12:22:49;33.70;81.10
22765;DHT22;11549;50.852;3.816;2023-08-21T12:25:17;33.70;83.80
22765;DHT22;11549;50.852;3.816;2023-08-21T12:27:47;33.50;85.30
22765;DHT22;11549;50.852;3.816;2023-08-21T12:30:26;33.40;79.90
22765;DHT22;11549;50.852;3.816;2023-08-21T12:32:55;33.30;80.30
22765;DHT22;11549;50.852;3.816;2023-08-21T12:35:34;33.60;77.40
22765;DHT22;11549;50.852;3.816;2023-08-21T12:38:11;33.80;77.50
22765;DHT22;11549;50.852;3.816;2023-08-21T12:40:39;34.20;77.90
22765;DHT22;11549;50.852;3.816;2023-08-21T12:43:09;34.40;75.50
22765;DHT22;11549;50.852;3.816;2023-08-21T12:45:37;34.20;78.60
22765;DHT22;11549;50.852;3.816;2023-08-21T12:48:06;34.10;79.10
22765;DHT22;11549;50.852;3.816;2023-08-21T12:50:35;33.70;78.00
22765;DHT22;11549;50.852;3.816;2023-08-21T12:53:03;33.80;76.30
22765;DHT22;11549;50.852;3.816;2023-08-21T12:55:32;34.10;77.70
22765;DHT22;11549;50.852;3.816;2023-08-21T12:58:00;34.00;79.00
22765;DHT22;11549;50.852;3.816;2023-08-21T13:00:30;34.00;78.20
22765;DHT22;11549;50.852;3.816;2023-08-21T13:02:59;33.70;79.30
22765;DHT22;11549;50.852;3.816;2023-08-21T13:05:28;33.70;77.40
22765;DHT22;11549;50.852;3.816;2023-08-21T13:07:56;33.70;78.60
22765;DHT22;11549;50.852;3.816;2023-08-21T13:10:24;33.70;79.00
22765;DHT22;11549;50.852;3.816;2023-08-21T13:12:53;33.70;79.80
22765;DHT22;11549;50.852;3.816;2023-08-21T13:15:21;33.70;82.00
22765;DHT22;11549;50.852;3.816;2023-08-21T13:17:51;33.50;81.70
22765;DHT22;11549;50.852;3.816;2023-08-21T13:20:19;33.70;79.70
22765;DHT22;11549;50.852;3.816;2023-08-21T13:22:48;33.80;80.60
22765;DHT22;11549;50.852;3.816;2023-08-21T13:25:18;33.90;80.00
22765;DHT22;11549;50.852;3.816;2023-08-21T13:27:47;33.70;76.40
22765;DHT22;11549;50.852;3.816;2023-08-21T13:30:16;33.70;76.90
22765;DHT22;11549;50.852;3.816;2023-08-21T13:32:44;33.80;77.60
22765;DHT22;11549;50.852;3.816;2023-08-21T13:35:14;33.70;79.50
22765;DHT22;11549;50.852;3.816;2023-08-21T13:37:43;33.50;78.60
22765;DHT22;11549;50.852;3.816;2023-08-21T13:40:12;33.10;78.00
22765;DHT22;11549;50.852;3.816;2023-08-21T13:42:44;32.90;79.90
22765;DHT22;11549;50.852;3.816;2023-08-21T13:45:14;33.00;81.90
22765;DHT22;11549;50.852;3.816;2023-08-21T13:47:44;33.00;80.70
22765;DHT22;11549;50.852;3.816;2023-08-21T13:50:17;33.20;78.50
22765;DHT22;11549;50.852;3.816;2023-08-21T13:52:46;33.00;80.60
22765;DHT22;11549;50.852;3.816;2023-08-21T13:55:16;32.90;78.30
22765;DHT22;11549;50.852;3.816;2023-08-21T13:57:44;32.90;78.10
22765;DHT22;11549;50.852;3.816;2023-08-21T14:00:13;32.50;75.20
22765;DHT22;11549;50.852;3.816;2023-08-21T14:02:45;32.50;79.80
22765;DHT22;11549;50.852;3.816;2023-08-21T14:05:13;32.50;78.80
22765;DHT22;11549;50.852;3.816;2023-08-21T14:07:43;32.30;80.30
22765;DHT22;11549;50.852;3.816;2023-08-21T14:10:11;32.30;81.00
22765;DHT22;11549;50.852;3.816;2023-08-21T14:12:41;32.30;79.20
22765;DHT22;11549;50.852;3.816;2023-08-21T14:15:10;32.30;78.90
22765;DHT22;11549;50.852;3.816;2023-08-21T14:17:39;32.20;76.60
22765;DHT22;11549;50.852;3.816;2023-08-21T14:20:08;32.20;79.00
22765;DHT22;11549;50.852;3.816;2023-08-21T14:22:38;32.40;77.60
22765;DHT22;11549;50.852;3.816;2023-08-21T14:25:08;32.50;76.70
22765;DHT22;11549;50.852;3.816;2023-08-21T14:27:37;32.70;78.40
22765;DHT22;11549;50.852;3.816;2023-08-21T14:30:07;32.70;76.30
22765;DHT22;11549;50.852;3.816;2023-08-21T14:32:35;32.80;76.60
22765;DHT22;11549;50.852;3.816;2023-08-21T14:35:05;32.90;74.50
22765;DHT22;11549;50.852;3.816;2023-08-21T14:37:35;33.00;71.80
22765;DHT22;11549;50.852;3.816;2023-08-21T14:40:05;33.00;72.80
22765;DHT22;11549;50.852;3.816;2023-08-21T14:42:36;32.70;74.60
22765;DHT22;11549;50.852;3.816;2023-08-21T14:45:09;32.60;74.60
22765;DHT22;11549;50.852;3.816;2023-08-21T14:47:38;32.40;75.40
22765;DHT22;11549;50.852;3.816;2023-08-21T14:50:07;32.30;78.30
22765;DHT22;11549;50.852;3.816;2023-08-21T14:52:35;32.30;77.50
22765;DHT22;11549;50.852;3.816;2023-08-21T14:55:04;32.30;77.70
22765;DHT22;11549;50.852;3.816;2023-08-21T14:57:33;32.40;77.10
22765;DHT22;11549;50.852;3.816;2023-08-21T15:00:03;32.30;73.20
22765;DHT22;11549;50.852;3.816;2023-08-21T15:02:31;32.40;74.10
22765;DHT22;11549;50.852;3.816;2023-08-21T15:05:02;32.40;74.50
22765;DHT22;11549;50.852;3.816;2023-08-21T15:07:32;32.40;76.50
22765;DHT22;11549;50.852;3.816;2023-08-21T15:10:01;32.50;77.10
22765;DHT22;11549;50.852;3.816;2023-08-21T15:12:29;32.50;74.90
22765;DHT22;11549;50.852;3.816;2023-08-21T15:14:57;32.50;71.90
22765;DHT22;11549;50.852;3.816;2023-08-21T15:17:27;32.30;74.90
22765;DHT22;11549;50.852;3.816;2023-08-21T15:19:56;32.20;75.40
22765;DHT22;11549;50.852;3.816;2023-08-21T15:22:24;32.10;75.20
22765;DHT22;11549;50.852;3.816;2023-08-21T15:24:53;31.60;74.10
22765;DHT22;11549;50.852;3.816;2023-08-21T15:27:21;31.60;75.50
22765;DHT22;11549;50.852;3.816;2023-08-21T15:29:49;31.60;76.20
22765;DHT22;11549;50.852;3.816;2023-08-21T15:32:17;31.50;76.90
22765;DHT22;11549;50.852;3.816;2023-08-21T15:34:47;31.40;78.10
22765;DHT22;11549;50.852;3.816;2023-08-21T15:37:15;31.40;76.60
22765;DHT22;11549;50.852;3.816;2023-08-21T15:39:44;31.50;75.20
22765;DHT22;11549;50.852;3.816;2023-08-21T15:42:12;31.30;75.50
22765;DHT22;11549;50.852;3.816;2023-08-21T15:44:40;31.20;77.40